Time;durP1;ratioP1;P1;durP2;ratioP2;P2;SDS_P1;SDS_P2;PMS_P1;PMS_P2;Temp;Humidity;BMP_temperature;BMP_pressure;BME280_temperature;BME280_humidity;BME280_pressure;Samples;Min_cycle;Max_cycle;Signal;HPM_P1;HPM_P2
2021/01/14 00:00:09;;;;;;;13.75;1.70;;;5.10;80.20;;;5.22;65.46;100544.88;5000682;28;20106;-85
2021/01/14 00:02:36;;;;;;;12.73;1.77;;;5.00;80.80;;;5.27;65.19;100541.72;5000120;28;20065;-84
2021/01/14 00:05:04;;;;;;;8.57;1.55;;;5.00;79.90;;;5.31;63.49;100543.13;5000579;28;20141;-86
2021/01/14 00:07:31;;;;;;;9.18;1.60;;;5.10;78.20;;;5.31;64.23;100543.13;5000521;28;20073;-84
2021/01/14 00:09:59;;;;;;;9.32;2.33;;;5.00;79.40;;;5.32;63.87;100544.84;5000258;28;20058;-85
2021/01/14 00:12:26;;;;;;;12.80;2.10;;;5.00;79.00;;;5.32;63.53;100550.22;5007020;28;20510;-85
2021/01/14 00:14:52;;;;;;;6.80;1.75;;;5.00;78.40;;;5.31;63.36;100548.50;5019985;28;20371;-84
2021/01/14 00:17:19;;;;;;;9.00;1.58;;;4.90;78.70;;;5.25;64.15;100555.38;5018370;28;20184;-84
2021/01/14 00:19:46;;;;;;;9.82;1.70;;;4.90;79.50;;;5.23;64.45;100551.97;4995632;28;20129;-84
2021/01/14 00:22:13;;;;;;;6.47;1.38;;;4.90;80.00;;;5.13;64.79;100566.50;5000125;28;20056;-84
2021/01/14 00:24:39;;;;;;;13.60;2.15;;;4.90;80.10;;;5.11;64.62;100568.50;5001108;28;20066;-84
2021/01/14 00:27:08;;;;;;;9.90;1.80;;;4.90;80.60;;;5.14;65.13;100570.88;5000606;28;20086;-84
2021/01/14 00:29:34;;;;;;;17.63;2.15;;;4.90;80.70;;;5.16;64.59;100571.59;4999653;28;20465;-84
2021/01/14 00:32:01;;;;;;;14.98;2.22;;;4.90;80.00;;;5.19;64.15;100565.91;4999955;28;20050;-84
2021/01/14 00:34:28;;;;;;;9.23;1.83;;;4.90;79.80;;;5.19;65.01;100563.22;5000419;28;20498;-84
2021/01/14 00:39:42;;;;;;;10.20;1.83;;;4.80;80.70;;;5.15;65.17;100567.22;4979288;28;20061;-84
2021/01/14 00:42:16;;;;;;;9.70;2.35;;;4.80;80.50;;;5.15;63.98;100567.22;4979622;28;20062;-85
2021/01/14 00:44:43;;;;;;;10.20;1.90;;;4.80;78.50;;;5.18;63.44;100559.66;5000460;28;20406;-84
2021/01/14 00:47:09;;;;;;;9.85;1.88;;;4.80;78.60;;;5.17;63.27;100567.91;4999146;28;20082;-84
2021/01/14 00:49:36;;;;;;;10.70;2.20;;;4.90;78.90;;;5.15;64.15;100578.00;4999664;28;20077;-84
2021/01/14 00:52:03;;;;;;;8.65;1.73;;;4.70;80.00;;;5.06;64.20;100574.31;4999756;28;20701;-85
2021/01/14 00:54:30;;;;;;;9.15;1.70;;;4.70;80.10;;;5.00;64.23;100573.06;5000070;28;20070;-84
2021/01/14 00:56:56;;;;;;;9.50;1.90;;;4.70;80.50;;;5.02;64.94;100565.69;4999882;28;20675;-84
2021/01/14 00:59:24;;;;;;;14.50;2.22;;;4.70;80.50;;;5.06;63.72;100566.22;5000374;28;20070;-84
2021/01/14 01:01:51;;;;;;;10.82;1.80;;;4.70;79.10;;;5.02;63.34;100565.69;4998957;28;20065;-84
2021/01/14 01:04:18;;;;;;;14.65;2.10;;;4.70;79.30;;;4.95;63.92;100564.59;4998749;28;20070;-84
2021/01/14 01:06:44;;;;;;;7.30;1.75;;;4.60;79.80;;;4.96;64.59;100568.97;4974302;28;20147;-85
2021/01/14 01:09:12;;;;;;;8.98;1.95;;;4.70;80.20;;;5.01;64.36;100574.78;4999130;28;20085;-85
2021/01/14 01:11:39;;;;;;;6.03;1.80;;;4.60;80.20;;;4.98;64.26;100577.75;4999925;28;20072;-84
2021/01/14 01:14:07;;;;;;;7.95;1.73;;;4.60;79.80;;;4.95;64.35;100583.47;4999421;28;20073;-84
2021/01/14 01:16:34;;;;;;;17.88;1.90;;;4.60;80.10;;;4.92;64.09;100572.97;4999651;28;20730;-84
2021/01/14 01:19:01;;;;;;;7.32;1.48;;;4.60;79.70;;;4.93;64.45;100577.38;4999568;28;20046;-84
2021/01/14 01:21:28;;;;;;;10.60;1.90;;;4.60;80.10;;;4.94;63.81;100579.06;5000325;28;20509;-84
2021/01/14 01:23:54;;;;;;;8.35;1.77;;;4.60;79.30;;;4.91;64.21;100576.63;4999848;28;20145;-84
2021/01/14 01:26:21;;;;;;;10.02;2.03;;;4.60;79.80;;;4.86;64.21;100573.56;4998320;28;20075;-84
2021/01/14 01:28:48;;;;;;;14.05;2.00;;;4.50;80.30;;;4.85;64.57;100579.94;4998774;28;20070;-84
2021/01/14 01:31:15;;;;;;;12.10;1.98;;;4.50;80.70;;;4.86;64.44;100582.47;4993692;28;20053;-84
2021/01/14 01:33:44;;;;;;;9.88;1.50;;;4.60;80.80;;;4.85;64.52;100579.94;4999429;28;20098;-84
2021/01/14 01:36:13;;;;;;;8.07;1.95;;;4.60;80.00;;;4.82;64.29;100585.63;4999535;28;20072;-84
2021/01/14 01:38:41;;;;;;;8.35;1.38;;;4.50;79.70;;;4.75;64.64;100595.28;4999251;28;20077;-84
2021/01/14 01:41:08;;;;;;;13.00;1.60;;;4.50;80.00;;;4.79;64.74;100583.22;4981060;28;20458;-85
2021/01/14 01:43:35;;;;;;;11.35;1.58;;;4.50;80.40;;;4.79;64.72;100596.69;4981534;28;20142;-84
2021/01/14 01:46:03;;;;;;;9.15;1.70;;;4.50;80.10;;;4.85;63.08;100594.25;4999614;28;20066;-85
2021/01/14 01:48:31;;;;;;;9.30;1.77;;;4.50;78.30;;;4.81;63.60;100594.69;4990864;28;20074;-84
2021/01/14 01:51:01;;;;;;;10.50;1.67;;;4.50;79.30;;;4.82;63.76;100599.13;4978977;28;20454;-84
2021/01/14 01:53:30;;;;;;;4.97;1.30;;;4.50;80.00;;;4.85;63.63;100606.88;4979624;28;20505;-84
2021/01/14 01:55:57;;;;;;;10.75;1.42;;;4.50;79.50;;;4.82;63.94;100602.66;4979680;28;20066;-84
2021/01/14 01:58:32;;;;;;;14.52;2.67;;;4.50;79.40;;;4.85;63.63;100604.19;4961518;28;20097;-85
2021/01/14 02:00:59;;;;;;;11.00;2.50;;;4.50;79.10;;;4.85;63.30;100598.81;4979238;28;20045;-85
2021/01/14 02:03:25;;;;;;;13.05;1.58;;;4.50;79.50;;;4.82;63.82;100597.25;4979242;28;20090;-84
2021/01/14 02:05:52;;;;;;;12.27;1.80;;;4.50;79.10;;;4.83;63.41;100606.19;4978992;28;20122;-84
2021/01/14 02:08:28;;;;;;;16.92;1.95;;;4.50;79.20;;;4.69;62.97;100597.56;4980433;28;20089;-84
2021/01/14 02:10:58;;;;;;;11.35;1.73;;;4.60;79.70;;;4.66;63.60;100605.06;4979735;28;20058;-84
2021/01/14 02:13:33;;;;;;;7.72;1.58;;;4.50;79.70;;;4.67;63.85;100609.50;4979281;28;20042;-84
2021/01/14 02:16:02;;;;;;;10.98;1.75;;;4.40;79.40;;;4.67;63.92;100602.25;4979923;28;20635;-84
2021/01/14 02:18:30;;;;;;;8.65;1.50;;;4.40;79.50;;;4.64;64.33;100610.59;4980039;28;20459;-84
2021/01/14 02:21:02;;;;;;;7.75;1.77;;;4.40;79.70;;;4.72;63.66;100611.75;4979017;28;20126;-84
2021/01/14 02:23:41;;;;;;;7.18;1.60;;;4.40;79.10;;;4.67;63.05;100610.34;4979455;28;20085;-85
2021/01/14 02:26:21;;;;;;;15.63;2.38;;;4.40;78.60;;;4.72;63.32;100612.59;4978630;28;20123;-84
2021/01/14 02:28:49;;;;;;;9.27;1.95;;;4.40;79.10;;;4.75;63.40;100619.56;4978862;28;20050;-84
2021/01/14 02:31:16;;;;;;;11.77;1.95;;;4.40;79.50;;;4.66;63.36;100619.44;4979334;28;20146;-84
2021/01/14 02:33:44;;;;;;;10.88;1.77;;;4.40;79.50;;;4.67;63.53;100618.41;4979088;28;20672;-84
2021/01/14 02:36:11;;;;;;;6.93;1.60;;;4.40;79.50;;;4.68;63.74;100630.03;4979109;28;20106;-84
2021/01/14 02:38:38;;;;;;;7.50;2.75;;;4.40;79.20;;;4.68;63.20;100628.22;4979694;28;20534;-84
2021/01/14 02:41:04;;;;;;;12.93;1.98;;;4.40;78.70;;;4.73;62.72;100643.09;4978864;28;20050;-84
2021/01/14 02:43:32;;;;;;;10.15;1.90;;;4.40;78.10;;;4.74;62.81;100650.19;4979470;28;20062;-84
2021/01/14 02:45:59;;;;;;;8.55;1.70;;;4.40;78.50;;;4.78;62.42;100655.16;4978895;28;20072;-84
2021/01/14 02:48:33;;;;;;;10.73;2.60;;;4.40;78.20;;;4.79;62.38;100664.09;4979582;28;20081;-85
2021/01/14 02:51:06;;;;;;;15.55;1.65;;;4.40;77.80;;;4.75;62.64;100670.78;4977633;28;20058;-84
2021/01/14 02:53:34;;;;;;;8.80;1.60;;;4.40;78.80;;;4.70;62.91;100669.38;4961981;28;20510;-84
2021/01/14 02:56:01;;;;;;;9.27;1.73;;;4.40;78.20;;;4.69;63.48;100675.72;4979376;28;20698;-85
2021/01/14 02:58:28;;;;;;;7.88;1.45;;;4.40;79.00;;;4.64;63.62;100679.84;4983364;28;20046;-84
2021/01/14 03:00:57;;;;;;;11.32;1.83;;;4.30;79.70;;;4.60;63.36;100679.28;4983620;28;20369;-84
2021/01/14 03:03:23;;;;;;;9.48;2.10;;;4.30;79.10;;;4.57;63.63;100681.41;4983100;28;20086;-84
2021/01/14 03:05:50;;;;;;;11.13;1.95;;;4.30;79.50;;;4.61;63.80;100675.59;4982939;28;20055;-85
2021/01/14 03:08:17;;;;;;;8.93;1.88;;;4.30;79.80;;;4.63;63.88;100679.00;4983084;28;20115;-84
2021/01/14 03:10:45;;;;;;;9.40;1.80;;;4.30;80.00;;;4.67;64.03;100693.06;4982917;28;20080;-84
2021/01/14 03:13:12;;;;;;;7.95;1.65;;;4.20;80.10;;;4.64;64.11;100686.09;4982722;28;20114;-85
2021/01/14 03:15:39;;;;;;;7.70;1.80;;;4.20;80.20;;;4.64;63.68;100688.78;4982666;28;20074;-84
2021/01/14 03:18:10;;;;;;;8.63;1.80;;;4.20;80.20;;;4.62;63.68;100692.63;4983189;28;20109;-84
2021/01/14 03:20:36;;;;;;;10.15;1.90;;;4.20;80.00;;;4.51;63.99;100680.13;4982419;28;20086;-84
2021/01/14 03:23:03;;;;;;;12.77;1.67;;;4.10;80.40;;;4.56;64.23;100694.03;4982831;28;20082;-84
2021/01/14 03:25:30;;;;;;;11.50;1.75;;;4.20;80.50;;;4.54;63.83;100701.41;4982571;28;20075;-84
2021/01/14 03:27:57;;;;;;;7.30;1.65;;;4.20;80.40;;;4.53;64.43;100691.59;4983053;28;20047;-84
2021/01/14 03:30:24;;;;;;;13.05;1.80;;;4.20;80.50;;;4.58;64.18;100691.22;4983011;28;20129;-84
2021/01/14 03:32:51;;;;;;;13.85;1.90;;;4.10;80.60;;;4.56;64.81;100694.03;4983231;28;20074;-84
2021/01/14 03:35:18;;;;;;;9.80;2.00;;;4.10;81.00;;;4.57;64.11;100700.28;4984089;28;20155;-84
2021/01/14 03:37:45;;;;;;;16.92;1.90;;;4.10;80.20;;;4.50;63.77;100694.59;4982961;28;20086;-84
2021/01/14 03:40:13;;;;;;;6.97;1.70;;;4.10;80.10;;;4.49;63.96;100693.75;4983057;28;20522;-84
2021/01/14 03:42:40;;;;;;;7.70;2.20;;;4.10;80.70;;;4.50;64.67;100697.31;4965124;28;20077;-84
2021/01/14 03:45:08;;;;;;;11.00;1.90;;;4.10;81.00;;;4.54;64.30;100690.63;4982386;28;20078;-84
2021/01/14 03:47:35;;;;;;;17.17;3.42;;;4.10;80.60;;;4.55;63.79;100688.78;4982436;28;20515;-84
2021/01/14 03:50:02;;;;;;;17.88;2.15;;;4.10;80.40;;;4.45;64.69;100702.25;4982620;28;20143;-83
2021/01/14 03:52:29;;;;;;;10.68;2.42;;;4.10;80.80;;;4.40;64.73;100705.38;4963741;28;20082;-84
2021/01/14 03:54:56;;;;;;;11.45;1.80;;;4.10;81.20;;;4.38;65.00;100704.66;4982457;28;20062;-85
2021/01/14 03:57:23;;;;;;;9.65;2.00;;;4.10;81.10;;;4.46;64.93;100706.66;4981529;28;20102;-84
2021/01/14 03:59:49;;;;;;;13.63;2.10;;;4.00;81.30;;;4.49;65.01;100709.94;4964432;28;20069;-84
2021/01/14 04:02:16;;;;;;;10.25;2.45;;;4.10;81.40;;;4.42;64.88;100713.34;4980529;28;20065;-85
2021/01/14 04:04:43;;;;;;;10.23;2.22;;;4.00;81.60;;;4.35;65.84;100717.56;4981734;28;20058;-85
2021/01/14 04:07:12;;;;;;;9.73;1.70;;;4.00;82.00;;;4.36;65.61;100716.56;4980573;28;20062;-85
2021/01/14 04:09:40;;;;;;;6.95;1.90;;;4.00;82.00;;;4.35;66.12;100718.41;4981805;28;20077;-85
2021/01/14 04:12:08;;;;;;;14.13;3.00;;;4.00;82.30;;;4.33;65.77;100719.56;4981965;28;20077;-84
2021/01/14 04:14:35;;;;;;;9.65;2.03;;;4.00;82.60;;;4.28;66.10;100722.66;4981354;28;20122;-84
2021/01/14 04:17:02;;;;;;;7.90;1.88;;;3.90;82.80;;;4.31;66.57;100717.00;4982231;28;20078;-84
2021/01/14 04:19:29;;;;;;;9.55;2.00;;;4.00;82.60;;;4.36;66.19;100722.81;4982079;28;20043;-84
2021/01/14 04:21:55;;;;;;;6.32;1.67;;;3.90;82.50;;;4.39;66.05;100713.59;4981254;28;20051;-84
2021/01/14 04:24:22;;;;;;;10.23;2.55;;;3.90;82.40;;;4.38;65.79;100712.75;4981714;28;20058;-84
2021/01/14 04:26:50;;;;;;;12.77;2.05;;;3.90;82.40;;;4.40;65.80;100717.97;4980923;28;20630;-84
2021/01/14 04:29:16;;;;;;;10.00;1.90;;;3.90;82.80;;;4.41;65.97;100727.78;4981227;28;20078;-84
2021/01/14 04:31:48;;;;;;;12.73;2.00;;;3.90;82.90;;;4.36;65.86;100708.47;4981222;28;20067;-84
2021/01/14 04:34:15;;;;;;;8.13;1.60;;;3.90;83.00;;;4.31;65.80;100712.44;4981282;28;20145;-84
2021/01/14 04:36:41;;;;;;;12.15;1.83;;;3.90;83.00;;;4.32;66.33;100707.91;4981257;28;20050;-85
2021/01/14 04:39:08;;;;;;;11.85;2.15;;;3.80;82.90;;;4.32;66.02;100705.22;4981680;28;20063;-85
2021/01/14 04:41:47;;;;;;;9.23;2.05;;;3.80;83.00;;;4.28;65.91;100711.88;4981161;28;20059;-84
2021/01/14 04:44:15;;;;;;;8.73;2.10;;;3.80;83.10;;;4.27;66.20;100711.03;4981436;28;20069;-84
2021/01/14 04:46:49;;;;;;;8.00;2.25;;;3.80;83.20;;;4.29;65.52;100710.91;4981318;28;20043;-85
2021/01/14 04:49:17;;;;;;;13.88;2.28;;;3.80;83.10;;;4.26;66.50;100722.78;4991670;28;20057;-84
2021/01/14 04:51:46;;;;;;;12.15;1.98;;;3.70;83.70;;;4.26;67.08;100714.69;4999518;28;20128;-84
2021/01/14 04:54:14;;;;;;;9.27;1.80;;;3.80;83.90;;;4.25;66.83;100718.41;4998898;28;20046;-84
2021/01/14 04:56:46;;;;;;;11.98;2.92;;;3.80;84.00;;;4.28;66.35;100725.34;5000587;28;20069;-84
2021/01/14 04:59:17;;;;;;;8.63;1.80;;;3.80;83.70;;;4.30;66.50;100729.63;5000789;28;20073;-84
2021/01/14 05:01:46;;;;;;;;;;;3.70;83.40;;;4.32;66.41;100726.75;5001181;28;20046;-85
2021/01/14 05:04:20;;;;;;;12.32;1.63;;;3.80;83.60;;;4.30;66.20;100729.63;4982204;28;19964;-84
2021/01/14 05:06:56;;;;;;;12.77;1.90;;;3.80;84.00;;;4.26;66.13;100725.47;5000537;28;20089;-84
2021/01/14 05:09:25;;;;;;;15.27;1.83;;;3.80;83.20;;;4.26;65.96;100722.78;5000557;28;20042;-84
2021/01/14 05:11:57;;;;;;;10.00;1.90;;;3.80;82.90;;;4.25;66.09;100729.16;5000032;28;20046;-84
2021/01/14 05:14:25;;;;;;;10.43;2.22;;;3.80;83.30;;;4.23;66.46;100725.78;5000233;28;20426;-85
2021/01/14 05:16:52;;;;;;;12.20;2.60;;;3.80;83.20;;;4.28;65.43;100731.59;4999969;28;20105;-84
2021/01/14 05:19:19;;;;;;;13.18;1.73;;;3.80;82.30;;;4.25;65.96;100729.16;4999803;28;20077;-84
2021/01/14 05:21:46;;;;;;;9.52;1.83;;;3.80;82.80;;;4.16;66.03;100735.38;5000116;28;20054;-84
2021/01/14 05:24:15;;;;;;;7.35;1.63;;;3.80;83.10;;;4.18;66.88;100725.31;5000566;28;20498;-84
2021/01/14 05:26:43;;;;;;;11.13;1.88;;;3.80;83.10;;;4.25;66.37;100725.63;4999797;28;20042;-84
2021/01/14 05:29:18;;;;;;;9.77;1.88;;;4.00;83.10;;;4.26;66.37;100725.47;5000657;28;20128;-84
2021/01/14 05:31:49;;;;;;;11.40;1.90;;;3.80;82.90;;;4.25;66.21;100722.94;5000175;28;20042;-84
2021/01/14 05:34:16;;;;;;;8.98;1.83;;;3.80;83.20;;;4.20;65.90;100728.72;5000444;28;20077;-84
2021/01/14 05:36:56;;;;;;;10.13;1.85;;;3.80;83.20;;;4.22;66.05;100724.06;4999749;28;20053;-84
2021/01/14 05:39:24;;;;;;;9.88;1.90;;;3.80;83.40;;;4.19;66.88;100724.34;4982945;28;20058;-85
2021/01/14 05:41:52;;;;;;;12.43;1.80;;;3.80;83.20;;;4.25;66.80;100731.03;4979569;28;20054;-84
2021/01/14 05:44:34;;;;;;;9.07;1.40;;;3.80;83.30;;;4.16;66.58;100735.38;4979778;28;20043;-84
2021/01/14 05:47:19;;;;;;;12.05;1.70;;;3.80;83.50;;;4.15;66.58;100736.41;4979359;28;20070;-84
2021/01/14 05:50:00;;;;;;;9.55;2.80;;;3.80;83.40;;;4.16;66.43;100735.38;4979629;28;20043;-84
2021/01/14 05:52:30;;;;;;;5.70;1.75;;;3.80;83.10;;;4.16;66.33;100735.38;4979544;28;20050;-83
2021/01/14 05:55:05;;;;;;;12.63;2.85;;;3.80;83.20;;;4.16;66.46;100740.78;4979714;28;20043;-84
2021/01/14 05:57:34;;;;;;;10.45;2.25;;;3.70;83.10;;;4.17;66.59;100742.50;4961773;28;20106;-84
2021/01/14 06:00:09;;;;;;;13.20;2.40;;;3.80;83.40;;;4.19;66.51;100751.28;4980328;28;20514;-84
2021/01/14 06:02:37;;;;;;;10.30;2.33;;;3.80;83.20;;;4.18;66.29;100757.66;4980061;28;20050;-84
2021/01/14 06:05:25;;;;;;;10.80;2.28;;;3.90;83.30;;;4.24;66.15;100764.31;4980123;28;20062;-84
2021/01/14 06:07:53;;;;;;;8.40;1.83;;;3.80;83.20;;;4.23;66.57;100768.88;4980353;28;20046;-84
2021/01/14 06:10:30;;;;;;;10.43;2.63;;;3.80;83.20;;;4.20;66.52;100769.13;4979644;28;20088;-84
2021/01/14 06:12:57;;;;;;;7.03;2.17;;;3.80;83.20;;;4.17;66.61;100774.81;4978911;28;20714;-84
2021/01/14 06:15:24;;;;;;;12.07;2.08;;;3.80;82.80;;;4.19;66.56;100767.44;4979424;28;20070;-84
2021/01/14 06:17:53;;;;;;;7.43;1.92;;;3.80;83.20;;;4.21;67.02;100770.84;4980189;28;20050;-84
2021/01/14 06:20:20;;;;;;;8.93;1.80;;;3.80;83.30;;;4.21;66.31;100778.94;4979416;28;20070;-84
2021/01/14 06:22:48;;;;;;;8.35;1.77;;;3.80;83.10;;;4.26;66.37;100779.34;4979439;28;20075;-84
2021/01/14 06:25:14;;;;;;;8.50;2.10;;;3.80;83.50;;;4.19;66.53;100785.44;4979863;28;20070;-84
2021/01/14 06:27:55;;;;;;;12.05;2.13;;;3.70;83.20;;;4.21;66.42;100784.31;4979432;28;20582;-84
2021/01/14 06:30:22;;;;;;;10.80;2.70;;;3.70;83.20;;;4.18;66.63;100798.06;4977532;28;20039;-83
2021/01/14 06:33:01;;;;;;;11.38;2.17;;;3.70;83.70;;;4.22;66.19;100794.09;4979050;28;20125;-87
2021/01/14 06:35:28;;;;;;;11.35;2.38;;;3.70;83.20;;;4.16;66.49;100793.78;4977878;28;20042;-86
2021/01/14 06:38:00;;;;;;;9.88;2.35;;;3.60;83.40;;;4.11;66.70;100796.88;4977680;28;20050;-86
2021/01/14 06:40:29;;;;;;;12.93;2.17;;;3.70;83.80;;;4.11;66.72;100791.50;4978098;28;20125;-87
2021/01/14 06:42:58;;;;;;;12.43;2.38;;;3.60;84.20;;;4.01;66.45;100798.69;4977634;28;20404;-87
2021/01/14 06:45:41;;;;;;;11.35;2.13;;;3.80;83.90;;;4.06;67.31;100805.38;4977529;28;20034;-87
2021/01/14 06:48:16;;;;;;;12.70;2.67;;;3.70;83.90;;;4.08;66.93;100811.47;4976857;28;20129;-87
2021/01/14 06:50:49;;;;;;;10.60;2.25;;;3.70;84.10;;;4.04;67.12;100818.13;4976689;28;20070;-88
2021/01/14 06:53:23;;;;;;;10.23;2.53;;;3.60;83.80;;;4.07;67.09;100811.63;4976685;28;20076;-87
2021/01/14 06:55:50;;;;;;;10.40;2.90;;;3.60;84.20;;;4.09;67.19;100815.91;4959527;28;20141;-88
2021/01/14 06:58:19;;;;;;;9.48;2.10;;;3.60;83.90;;;4.05;67.43;100824.34;4977116;28;20302;-87
2021/01/14 07:00:47;;;;;;;7.82;2.28;;;3.60;84.50;;;4.07;67.44;100822.38;4977149;28;20038;-87
2021/01/14 07:03:21;;;;;;;9.48;2.50;;;3.60;84.40;;;4.15;67.40;100813.63;4977703;28;20559;-88
2021/01/14 07:06:20;;;;;;;6.72;2.10;;;3.60;84.40;;;4.18;67.12;100814.22;4977425;28;20051;-88
2021/01/14 07:09:04;;;;;;;13.82;2.30;;;3.60;84.40;;;4.11;67.05;100818.44;4959871;28;20082;-88
2021/01/14 07:11:39;;;;;;;13.90;2.83;;;3.60;84.20;;;4.12;66.17;100817.44;4977442;28;20050;-88
2021/01/14 07:14:13;;;;;;;9.48;2.40;;;3.60;83.70;;;4.13;66.65;100829.91;4977053;28;20074;-88
2021/01/14 07:16:43;;;;;;;21.98;2.55;;;3.60;83.90;;;4.16;66.45;100821.56;4959594;28;20050;-88
2021/01/14 07:19:11;;;;;;;9.95;2.55;;;3.60;83.10;;;4.18;66.31;100829.53;4976779;28;20392;-88
2021/01/14 07:21:41;;;;;;;9.52;2.72;;;3.60;83.80;;;4.15;66.58;100822.59;4958010;28;20471;-88
2021/01/14 07:24:18;;;;;;;9.70;2.20;;;3.60;83.50;;;4.18;66.30;100829.53;4976087;28;20134;-88
2021/01/14 07:26:46;;;;;;;9.02;2.53;;;3.60;83.60;;;4.19;66.30;100826.72;4975522;28;20057;-88
2021/01/14 07:29:15;;;;;;;12.00;2.30;;;3.60;83.60;;;4.20;65.86;100833.78;4959615;28;20051;-87
2021/01/14 07:31:50;;;;;;;10.98;2.45;;;3.60;83.10;;;4.13;66.31;100834.47;4976880;28;20077;-89
2021/01/14 07:34:36;;;;;;;13.65;2.70;;;3.60;83.30;;;4.10;65.88;100838.28;4977374;28;20066;-89
2021/01/14 07:37:05;;;;;;;10.45;2.65;;;3.60;83.10;;;4.10;65.79;100841.81;4977467;28;20046;-90
2021/01/14 07:39:55;;;;;;;11.80;2.38;;;3.60;82.60;;;4.15;66.06;100841.44;4973687;28;20061;-85
2021/01/14 07:42:25;;;;;;;13.55;2.30;;;3.70;83.10;;;4.15;66.44;100844.13;4980194;28;20046;-86
2021/01/14 07:44:55;;;;;;;12.65;3.38;;;3.60;83.10;;;4.16;66.29;100851.22;4996158;28;20037;-86
2021/01/14 07:47:30;;;;;;;11.80;2.20;;;3.60;83.20;;;4.16;65.51;100853.91;4996436;28;20049;-86
2021/01/14 07:49:59;;;;;;;11.55;2.47;;;3.60;83.20;;;4.10;66.21;100862.53;4997614;28;20520;-86
2021/01/14 07:52:34;;;;;;;11.30;2.40;;;3.70;82.80;;;4.12;66.00;100865.94;4998019;28;20054;-86
2021/01/14 07:55:05;;;;;;;12.68;2.78;;;3.60;82.50;;;4.10;65.87;100873.31;4979587;28;20108;-86
2021/01/14 07:57:44;;;;;;;8.70;2.67;;;3.70;82.90;;;4.14;65.35;100872.03;4997450;28;20439;-86
2021/01/14 08:00:22;;;;;;;10.90;2.65;;;3.70;82.50;;;4.07;65.82;100871.75;4997107;28;20046;-86
2021/01/14 08:03:09;;;;;;;9.18;2.50;;;3.70;82.40;;;4.13;64.82;100874.84;4997406;28;20046;-86
2021/01/14 08:05:42;;;;;;;11.98;2.30;;;3.60;81.70;;;4.11;65.17;100883.06;4996498;28;20501;-86
2021/01/14 08:08:31;;;;;;;10.02;2.30;;;3.60;81.80;;;4.05;65.17;100880.91;4996164;28;20046;-87
2021/01/14 08:11:14;;;;;;;12.50;2.30;;;3.60;81.80;;;4.07;65.60;100887.91;4997005;28;20058;-86
2021/01/14 08:14:10;;;;;;;10.73;2.67;;;3.70;82.40;;;4.07;65.16;100884.31;4995980;28;20050;-86
2021/01/14 08:16:46;;;;;;;10.02;2.78;;;3.70;81.30;;;4.00;65.36;100891.22;4996854;28;20076;-86
2021/01/14 08:19:23;;;;;;;6.22;2.40;;;3.70;81.90;;;4.00;65.71;100891.22;4996199;28;20054;-86
2021/01/14 08:22:10;;;;;;;10.23;2.53;;;3.70;82.30;;;4.06;65.04;100891.56;4996772;28;20474;-86
2021/01/14 08:24:50;;;;;;;11.00;2.92;;;3.60;81.60;;;4.05;65.54;100900.63;4996184;28;20108;-86
2021/01/14 08:27:27;;;;;;;14.73;2.90;;;3.70;81.90;;;4.05;65.66;100902.47;4988640;28;20070;-86
2021/01/14 08:30:00;;;;;;;11.20;3.10;;;3.60;81.70;;;4.02;65.91;100905.44;4995879;28;20046;-85
2021/01/14 08:32:33;;;;;;;7.43;2.63;;;3.70;81.80;;;4.08;65.43;100899.50;4995251;28;20046;-85
2021/01/14 08:35:01;;;;;;;9.82;2.67;;;3.70;81.50;;;4.11;64.51;100899.22;4994909;28;20096;-86
2021/01/14 08:37:36;;;;;;;13.88;3.30;;;3.70;81.00;;;4.12;64.40;100898.25;4995176;28;20061;-86
2021/01/14 08:40:08;;;;;;;13.93;3.03;;;3.70;81.30;;;4.07;64.85;100897.78;4996803;28;20054;-86
2021/01/14 08:42:38;;;;;;;14.80;3.35;;;3.60;81.50;;;4.06;65.08;100912.25;4996253;28;20053;-86
2021/01/14 08:45:16;;;;;;;11.00;3.10;;;3.70;81.50;;;4.10;65.13;100908.31;4995703;28;20035;-85
2021/01/14 08:48:01;;;;;;;11.45;3.22;;;3.60;81.30;;;4.10;64.81;100911.84;4976951;28;20046;-85
2021/01/14 08:50:58;;;;;;;12.35;3.10;;;3.70;81.10;;;4.11;65.10;100920.78;4994715;28;20053;-85
2021/01/14 08:53:32;;;;;;;9.05;3.70;;;3.60;81.30;;;4.08;63.69;100918.38;4994872;28;20044;-86
2021/01/14 08:56:01;;;;;;;14.68;4.07;;;3.60;80.10;;;4.09;65.08;100929.00;4994840;28;20081;-85
2021/01/14 08:58:42;;;;;;;13.43;4.30;;;3.60;81.50;;;4.12;64.72;100925.19;4994668;28;20054;-86
2021/01/14 09:01:17;;;;;;;15.65;4.70;;;3.60;81.60;;;4.15;64.06;100932.16;4995218;28;20042;-85
2021/01/14 09:03:45;;;;;;;14.52;6.07;;;3.50;80.30;;;4.15;63.90;100926.75;4994979;28;20499;-85
2021/01/14 09:06:12;;;;;;;12.75;6.00;;;3.60;80.60;;;4.09;64.44;100926.31;4977900;28;20042;-84
2021/01/14 09:08:40;;;;;;;14.55;5.20;;;3.60;80.90;;;4.11;64.14;100935.13;4996670;28;20122;-84
2021/01/14 09:11:07;;;;;;;15.38;5.28;;;3.60;80.30;;;4.06;64.57;100933.81;4979658;28;20050;-83
2021/01/14 09:13:35;;;;;;;18.65;6.43;;;3.60;81.30;;;4.12;64.95;100935.97;4996896;28;20053;-83
2021/01/14 09:16:09;;;;;;;16.52;6.72;;;3.70;80.90;;;4.14;64.64;100942.06;4997100;28;20043;-84
2021/01/14 09:18:38;;;;;;;16.98;7.97;;;3.70;80.60;;;4.14;63.55;100952.84;5004637;28;20050;-84
2021/01/14 09:21:06;;;;;;;15.00;8.82;;;3.70;79.70;;;4.18;63.13;100948.91;4989200;28;20049;-84
2021/01/14 09:23:35;;;;;;;16.48;8.60;;;3.70;79.40;;;4.13;64.25;100956.50;4977912;28;20061;-84
2021/01/14 09:26:05;;;;;;;20.42;9.32;;;3.70;80.10;;;4.15;64.23;100956.38;4981364;28;20042;-84
2021/01/14 09:28:33;;;;;;;15.88;9.05;;;3.80;80.20;;;4.15;63.89;100959.97;4995847;28;20573;-84
2021/01/14 09:31:03;;;;;;;17.45;9.57;;;3.80;79.60;;;4.10;63.12;100963.03;4990662;28;20050;-84
2021/01/14 09:33:33;;;;;;;18.95;8.75;;;3.80;79.00;;;4.11;63.23;100966.56;4995845;28;20046;-84
2021/01/14 09:36:10;;;;;;;15.43;8.38;;;3.80;78.60;;;4.14;63.44;100958.22;4983684;28;20109;-83
2021/01/14 09:38:46;;;;;;;16.50;8.95;;;3.80;79.00;;;4.16;63.12;100961.66;4996106;28;20050;-83
2021/01/14 09:41:23;;;;;;;18.38;9.10;;;3.80;78.80;;;4.18;62.95;100962.38;4996354;28;20049;-84
2021/01/14 09:43:51;;;;;;;23.00;10.02;;;3.80;78.60;;;4.15;63.29;100959.06;4996023;28;20068;-83
2021/01/14 09:46:21;;;;;;;14.13;8.65;;;3.80;78.90;;;4.19;62.93;100966.78;4995139;28;20061;-83
2021/01/14 09:48:50;;;;;;;14.60;8.68;;;3.90;78.80;;;4.21;62.79;100961.25;4985344;28;20396;-84
2021/01/14 09:51:17;;;;;;;17.75;9.60;;;3.90;78.60;;;4.25;63.00;100965.41;4976553;28;20053;-84
2021/01/14 09:53:49;;;;;;;17.60;8.98;;;3.80;78.90;;;4.19;62.53;100964.09;4976280;28;20047;-83
2021/01/14 09:56:24;;;;;;;14.18;8.25;;;3.80;78.10;;;4.19;62.67;100966.78;4975126;28;20105;-84
2021/01/14 09:58:57;;;;;;;13.70;8.75;;;3.90;78.30;;;4.15;62.04;100965.34;4976181;28;20055;-83
2021/01/14 10:01:32;;;;;;;15.35;8.45;;;3.90;78.30;;;4.17;62.82;100971.44;4992514;28;20034;-83
2021/01/14 10:04:11;;;;;;;15.05;8.50;;;3.90;78.30;;;4.12;62.67;100965.59;4995311;28;20460;-83
2021/01/14 10:06:45;;;;;;;15.13;8.30;;;3.90;78.50;;;4.16;63.28;100975.13;4994597;28;20318;-83
2021/01/14 10:09:14;;;;;;;11.95;7.32;;;3.90;79.00;;;4.17;63.94;100974.16;4995389;28;20057;-83
2021/01/14 10:11:43;;;;;;;12.90;7.38;;;3.90;79.30;;;4.18;64.46;100972.28;4994582;28;20042;-82
2021/01/14 10:14:17;;;;;;;13.80;7.25;;;4.00;79.60;;;4.21;63.86;100970.19;4993488;28;20121;-86
2021/01/14 10:16:45;;;;;;;12.63;6.70;;;4.00;79.60;;;4.25;63.38;100968.94;4993150;28;20042;-86
2021/01/14 10:19:15;;;;;;;10.68;6.07;;;4.00;78.90;;;4.29;63.53;100973.06;4995366;28;20054;-83
2021/01/14 10:21:43;;;;;;;13.38;6.50;;;4.00;79.00;;;4.26;63.16;100969.78;4997861;28;20049;-84
2021/01/14 10:24:27;;;;;;;14.98;6.70;;;4.00;78.70;;;4.25;63.86;100976.19;5004821;28;20038;-84
2021/01/14 10:27:09;;;;;;;10.68;5.63;;;4.10;78.80;;;4.27;63.73;100964.28;4998414;28;20620;-84
2021/01/14 10:29:39;;;;;;;10.20;5.90;;;4.10;79.00;;;4.28;63.45;100960.59;4997136;28;20129;-84
2021/01/14 10:32:08;;;;;;;9.70;5.25;;;4.20;78.60;;;4.31;63.36;100965.72;4992306;28;20109;-84
2021/01/14 10:34:44;;;;;;;15.32;4.95;;;4.10;78.70;;;4.31;63.12;100957.63;4995648;28;20042;-84
2021/01/14 10:37:25;;;;;;;10.48;4.43;;;4.20;78.10;;;4.33;63.12;100954.81;4998930;28;20047;-83
2021/01/14 10:39:54;;;;;;;6.57;3.88;;;4.20;78.30;;;4.29;62.92;100959.59;5000339;28;20042;-83